Time;durP1;ratioP1;P1;durP2;ratioP2;P2;SDS_P1;SDS_P2;PMS_P1;PMS_P2;Temp;Humidity;BMP_temperature;BMP_pressure;BME280_temperature;BME280_humidity;BME280_pressure;Samples;Min_cycle;Max_cycle;Signal;HPM_P1;HPM_P2
2022/04/14 00:00:37;;;;;;;12.77;6.15;;;;;;;;;;4915602;29;20495;-65
2022/04/14 00:03:03;;;;;;;8.32;6.40;;;;;;;;;;4915305;29;20048;-65
2022/04/14 00:05:29;;;;;;;10.48;6.28;;;;;;;;;;4914433;29;20126;-65
2022/04/14 00:07:55;;;;;;;17.48;6.95;;;;;;;;;;4915806;29;20051;-65
2022/04/14 00:10:22;;;;;;;11.27;6.63;;;;;;;;;;4915106;29;20464;-65
2022/04/14 00:12:48;;;;;;;12.13;7.07;;;;;;;;;;4915937;29;20040;-65
2022/04/14 00:15:14;;;;;;;12.57;6.82;;;;;;;;;;4915788;29;20076;-65
2022/04/14 00:17:40;;;;;;;13.07;7.78;;;;;;;;;;4915032;29;20048;-65
2022/04/14 00:20:07;;;;;;;14.70;7.05;;;;;;;;;;4915790;29;20044;-65
2022/04/14 00:22:34;;;;;;;14.60;6.97;;;;;;;;;;4914495;29;20052;-65
2022/04/14 00:25:00;;;;;;;11.88;7.22;;;;;;;;;;4913919;29;20036;-65
2022/04/14 00:27:26;;;;;;;11.60;6.13;;;;;;;;;;4933588;29;20047;-65
2022/04/14 00:29:52;;;;;;;14.52;7.28;;;;;;;;;;4934378;29;20059;-65
2022/04/14 00:32:18;;;;;;;13.70;6.32;;;;;;;;;;4964846;28;20047;-65
2022/04/14 00:34:44;;;;;;;12.02;7.00;;;;;;;;;;4933039;29;20402;-65
2022/04/14 00:37:10;;;;;;;13.65;6.90;;;;;;;;;;4934410;29;20499;-65
2022/04/14 00:39:37;;;;;;;11.95;7.32;;;;;;;;;;4964354;28;20047;-65
2022/04/14 00:42:12;;;;;;;14.13;7.13;;;;;;;;;;4935696;29;20098;-65
2022/04/14 00:44:39;;;;;;;12.02;7.72;;;;;;;;;;4968886;28;20079;-65
2022/04/14 00:47:05;;;;;;;13.55;7.55;;;;;;;;;;4937282;29;20048;-65
2022/04/14 00:49:32;;;;;;;15.45;8.07;;;;;;;;;;4937880;29;20043;-65
2022/04/14 00:52:00;;;;;;;15.60;8.20;;;;;;;;;;4938066;29;20455;-65
2022/04/14 00:54:26;;;;;;;16.83;7.78;;;;;;;;;;4968232;28;20054;-65
2022/04/14 00:56:52;;;;;;;13.07;8.75;;;;;;;;;;4968301;28;20047;-65
2022/04/14 00:59:18;;;;;;;15.13;8.63;;;;;;;;;;4968267;28;20108;-65
2022/04/14 01:01:44;;;;;;;18.23;8.85;;;;;;;;;;4935483;29;20416;-65
2022/04/14 01:04:11;;;;;;;17.73;8.80;;;;;;;;;;4937956;29;20181;-65
2022/04/14 01:06:38;;;;;;;14.23;8.70;;;;;;;;;;4968250;28;20051;-65
2022/04/14 01:09:19;;;;;;;16.88;9.63;;;;;;;;;;4936826;29;20446;-64
2022/04/14 01:11:45;;;;;;;15.10;9.40;;;;;;;;;;4937657;29;20047;-64
2022/04/14 01:14:21;;;;;;;16.90;10.27;;;;;;;;;;4937718;29;20036;-64
2022/04/14 01:16:47;;;;;;;23.67;10.13;;;;;;;;;;4936802;29;20039;-64
2022/04/14 01:19:13;;;;;;;17.38;10.18;;;;;;;;;;4937575;29;20115;-64
2022/04/14 01:21:41;;;;;;;17.48;9.82;;;;;;;;;;4937439;29;20126;-64
2022/04/14 01:24:09;;;;;;;15.10;9.88;;;;;;;;;;4936821;29;20040;-64
2022/04/14 01:26:37;;;;;;;19.50;10.90;;;;;;;;;;4959722;28;20051;-64
2022/04/14 01:29:04;;;;;;;15.35;10.55;;;;;;;;;;4935906;29;20052;-64
2022/04/14 01:31:30;;;;;;;19.08;10.77;;;;;;;;;;4936638;29;20047;-64
2022/04/14 01:33:56;;;;;;;19.90;10.80;;;;;;;;;;4937371;29;20039;-64
2022/04/14 01:36:22;;;;;;;18.42;11.68;;;;;;;;;;4937312;29;20402;-65
2022/04/14 01:38:48;;;;;;;17.48;11.05;;;;;;;;;;4936443;29;20051;-65
2022/04/14 01:41:15;;;;;;;16.88;11.25;;;;;;;;;;4935987;29;20212;-65
2022/04/14 01:43:43;;;;;;;17.85;11.63;;;;;;;;;;4937161;29;20067;-65
2022/04/14 01:46:09;;;;;;;17.77;11.32;;;;;;;;;;4936213;29;20103;-65
2022/04/14 01:48:38;;;;;;;16.38;10.50;;;;;;;;;;4936915;29;20063;-65
2022/04/14 01:51:05;;;;;;;17.83;12.02;;;;;;;;;;4935487;29;20052;-65
2022/04/14 01:53:31;;;;;;;19.30;11.65;;;;;;;;;;4934266;28;20051;-65
2022/04/14 01:55:57;;;;;;;20.45;11.88;;;;;;;;;;4936641;29;20091;-65
2022/04/14 01:58:23;;;;;;;19.35;12.25;;;;;;;;;;4935117;29;20043;-65
2022/04/14 02:00:49;;;;;;;18.00;12.35;;;;;;;;;;4935701;29;20481;-65
2022/04/14 02:03:15;;;;;;;19.88;12.95;;;;;;;;;;4936754;29;20196;-65
2022/04/14 02:05:41;;;;;;;17.90;11.50;;;;;;;;;;4936724;29;20457;-65
2022/04/14 02:08:07;;;;;;;20.15;12.70;;;;;;;;;;4935884;29;20051;-65
2022/04/14 02:10:33;;;;;;;18.88;13.85;;;;;;;;;;4936642;29;20434;-65
2022/04/14 02:12:59;;;;;;;22.42;13.60;;;;;;;;;;4936495;29;20130;-65
2022/04/14 02:15:25;;;;;;;20.17;13.57;;;;;;;;;;4935631;29;20043;-65
2022/04/14 02:17:51;;;;;;;19.83;12.23;;;;;;;;;;4936070;29;20051;-65
2022/04/14 02:20:17;;;;;;;23.10;12.40;;;;;;;;;;4936277;29;20494;-64
2022/04/14 02:22:43;;;;;;;18.10;12.40;;;;;;;;;;4934455;29;20051;-64
2022/04/14 02:25:10;;;;;;;17.00;11.88;;;;;;;;;;4936281;29;20459;-64
2022/04/14 02:27:36;;;;;;;23.58;13.23;;;;;;;;;;4936191;29;20082;-64
2022/04/14 02:30:03;;;;;;;22.05;13.98;;;;;;;;;;4935467;29;20473;-64
2022/04/14 02:32:29;;;;;;;20.02;13.35;;;;;;;;;;4934544;29;20183;-64
2022/04/14 02:34:55;;;;;;;18.15;12.88;;;;;;;;;;4935984;29;20048;-64
2022/04/14 02:37:21;;;;;;;19.40;13.57;;;;;;;;;;4934989;29;20040;-64
2022/04/14 02:39:47;;;;;;;21.83;14.35;;;;;;;;;;4936077;29;20573;-64
2022/04/14 02:42:13;;;;;;;21.63;15.00;;;;;;;;;;4966832;28;20099;-64
2022/04/14 02:44:39;;;;;;;20.90;15.63;;;;;;;;;;4935725;29;20036;-64
2022/04/14 02:47:05;;;;;;;24.95;15.95;;;;;;;;;;4965759;28;20044;-64
2022/04/14 02:49:31;;;;;;;25.77;16.90;;;;;;;;;;4934440;29;20051;-64
2022/04/14 02:51:57;;;;;;;25.20;16.75;;;;;;;;;;4935729;29;20036;-64
2022/04/14 02:54:23;;;;;;;28.95;16.98;;;;;;;;;;4965873;28;20047;-64
2022/04/14 02:56:49;;;;;;;24.40;16.38;;;;;;;;;;4935281;29;20047;-64
2022/04/14 02:59:15;;;;;;;21.60;16.35;;;;;;;;;;4935669;29;20040;-64
2022/04/14 03:01:41;;;;;;;29.73;17.38;;;;;;;;;;4933680;29;20059;-64
2022/04/14 03:04:07;;;;;;;22.55;15.77;;;;;;;;;;4935427;29;20043;-64
2022/04/14 03:06:33;;;;;;;30.70;17.83;;;;;;;;;;4933650;29;20040;-64
2022/04/14 03:08:59;;;;;;;25.50;17.05;;;;;;;;;;4934524;29;20509;-64
2022/04/14 03:11:25;;;;;;;24.67;17.52;;;;;;;;;;4935443;29;20040;-64
2022/04/14 03:13:51;;;;;;;26.55;17.48;;;;;;;;;;4935549;29;20503;-64
2022/04/14 03:16:18;;;;;;;28.95;18.10;;;;;;;;;;4934793;29;20075;-64
2022/04/14 03:18:44;;;;;;;27.30;17.88;;;;;;;;;;4935386;29;20039;-64
2022/04/14 03:21:11;;;;;;;27.55;18.92;;;;;;;;;;4966092;28;20134;-64
2022/04/14 03:23:39;;;;;;;29.42;18.98;;;;;;;;;;4933408;29;20050;-64
2022/04/14 03:26:08;;;;;;;28.67;19.95;;;;;;;;;;4961761;28;20495;-64
2022/04/14 03:28:35;;;;;;;30.90;18.98;;;;;;;;;;4933688;29;20051;-64
2022/04/14 03:31:01;;;;;;;31.70;20.45;;;;;;;;;;4934578;29;20051;-64
2022/04/14 03:33:27;;;;;;;28.27;18.25;;;;;;;;;;4935257;29;20040;-64
2022/04/14 03:35:53;;;;;;;32.25;19.88;;;;;;;;;;4933760;29;20528;-64
2022/04/14 03:38:19;;;;;;;29.80;20.77;;;;;;;;;;4917477;29;20048;-64
2022/04/14 03:40:45;;;;;;;29.20;20.05;;;;;;;;;;4933853;29;20126;-64
2022/04/14 03:43:11;;;;;;;31.17;21.05;;;;;;;;;;4934992;29;20099;-64
2022/04/14 03:45:37;;;;;;;28.90;19.20;;;;;;;;;;4933199;29;20048;-64
2022/04/14 03:48:03;;;;;;;27.20;19.77;;;;;;;;;;4933627;29;20078;-64
2022/04/14 03:50:29;;;;;;;27.38;18.42;;;;;;;;;;4934944;29;20147;-64
2022/04/14 03:52:55;;;;;;;27.33;19.10;;;;;;;;;;4933196;29;20551;-64
2022/04/14 03:55:21;;;;;;;32.88;22.33;;;;;;;;;;4933657;29;20692;-64
2022/04/14 03:57:47;;;;;;;30.02;20.63;;;;;;;;;;4933708;29;20047;-64
2022/04/14 04:00:13;;;;;;;29.60;19.55;;;;;;;;;;4933767;29;20055;-64
2022/04/14 04:02:39;;;;;;;30.65;19.23;;;;;;;;;;4934920;29;20040;-64
2022/04/14 04:05:06;;;;;;;31.20;19.67;;;;;;;;;;4933274;29;20052;-64
2022/04/14 04:07:32;;;;;;;26.35;17.60;;;;;;;;;;4933849;29;20047;-64
2022/04/14 04:09:58;;;;;;;30.50;20.35;;;;;;;;;;4934746;29;20386;-64
2022/04/14 04:12:24;;;;;;;27.73;19.45;;;;;;;;;;4934539;29;20125;-64
2022/04/14 04:14:50;;;;;;;33.97;20.30;;;;;;;;;;4934228;29;20147;-64
2022/04/14 04:17:16;;;;;;;26.75;18.88;;;;;;;;;;4936112;29;20039;-64
2022/04/14 04:19:43;;;;;;;28.85;18.80;;;;;;;;;;4938629;29;20534;-64
2022/04/14 04:22:11;;;;;;;28.25;19.80;;;;;;;;;;4937931;29;20043;-64
2022/04/14 04:24:38;;;;;;;35.35;20.80;;;;;;;;;;4936939;29;20051;-64
2022/04/14 04:27:05;;;;;;;28.05;18.13;;;;;;;;;;4937149;29;20051;-64
2022/04/14 04:29:31;;;;;;;30.85;19.90;;;;;;;;;;4937467;29;20043;-64
2022/04/14 04:31:57;;;;;;;36.60;22.60;;;;;;;;;;4936896;29;20039;-64
2022/04/14 04:34:24;;;;;;;32.03;21.52;;;;;;;;;;4968835;28;20051;-64
2022/04/14 04:36:51;;;;;;;34.92;22.00;;;;;;;;;;4936349;29;20059;-64
2022/04/14 04:39:17;;;;;;;28.80;20.80;;;;;;;;;;4938297;29;20039;-64
2022/04/14 04:41:43;;;;;;;26.92;20.80;;;;;;;;;;4969076;28;20487;-64
2022/04/14 04:44:09;;;;;;;29.00;20.70;;;;;;;;;;4936125;29;20051;-64
2022/04/14 04:46:35;;;;;;;33.38;21.20;;;;;;;;;;4968953;28;20430;-64
2022/04/14 04:49:02;;;;;;;31.83;20.95;;;;;;;;;;4937940;29;20048;-64
2022/04/14 04:51:28;;;;;;;32.63;21.75;;;;;;;;;;4937094;29;20040;-64
2022/04/14 04:53:55;;;;;;;32.40;21.33;;;;;;;;;;4968433;28;20123;-64
2022/04/14 04:56:21;;;;;;;32.10;21.42;;;;;;;;;;4968814;28;20048;-64
2022/04/14 04:58:47;;;;;;;29.15;19.42;;;;;;;;;;4935680;29;20119;-64
2022/04/14 05:01:13;;;;;;;30.17;22.20;;;;;;;;;;4937537;29;20063;-64
2022/04/14 05:03:40;;;;;;;25.83;20.08;;;;;;;;;;4937381;29;20059;-64
2022/04/14 05:06:06;;;;;;;31.52;19.90;;;;;;;;;;4937126;29;20039;-64
2022/04/14 05:08:32;;;;;;;31.73;21.02;;;;;;;;;;4968297;28;20048;-64
2022/04/14 05:10:58;;;;;;;33.80;19.73;;;;;;;;;;4937696;29;20044;-64
2022/04/14 05:13:24;;;;;;;37.33;22.33;;;;;;;;;;4937025;29;20419;-64
2022/04/14 05:15:50;;;;;;;34.13;22.25;;;;;;;;;;4937551;29;20078;-64
2022/04/14 05:18:16;;;;;;;37.05;24.77;;;;;;;;;;4937404;29;20603;-64
2022/04/14 05:20:42;;;;;;;31.48;22.10;;;;;;;;;;4936774;29;20043;-65
2022/04/14 05:23:09;;;;;;;40.80;24.23;;;;;;;;;;4968338;28;20607;-64
2022/04/14 05:25:35;;;;;;;33.05;21.33;;;;;;;;;;4933801;29;20048;-64
2022/04/14 05:28:01;;;;;;;32.60;20.52;;;;;;;;;;4917201;29;20040;-64
2022/04/14 05:30:27;;;;;;;37.35;24.23;;;;;;;;;;4917709;29;20059;-64
2022/04/14 05:32:53;;;;;;;36.70;21.95;;;;;;;;;;4917133;29;20047;-64
2022/04/14 05:35:21;;;;;;;36.92;21.85;;;;;;;;;;4916285;29;20084;-64
2022/04/14 05:37:47;;;;;;;39.00;25.45;;;;;;;;;;4918176;29;20047;-64
2022/04/14 05:40:13;;;;;;;39.80;23.65;;;;;;;;;;4918177;29;20076;-64
2022/04/14 05:42:45;;;;;;;36.28;23.92;;;;;;;;;;4915635;29;20404;-64
2022/04/14 05:45:12;;;;;;;37.40;25.27;;;;;;;;;;4917992;29;20115;-64
2022/04/14 05:47:38;;;;;;;46.15;28.60;;;;;;;;;;4917625;29;20052;-65
2022/04/14 05:50:05;;;;;;;45.22;28.70;;;;;;;;;;4931425;29;20162;-63
2022/04/14 05:52:31;;;;;;;41.45;27.50;;;;;;;;;;4942973;29;20121;-63
2022/04/14 05:55:01;;;;;;;41.42;26.75;;;;;;;;;;4952630;29;20454;-68
2022/04/14 05:57:32;;;;;;;42.08;28.27;;;;;;;;;;4948164;28;20063;-69
2022/04/14 05:59:58;;;;;;;45.65;28.98;;;;;;;;;;4943397;29;20142;-69
2022/04/14 06:02:24;;;;;;;38.30;26.25;;;;;;;;;;4954149;29;20106;-69
2022/04/14 06:04:51;;;;;;;43.05;26.40;;;;;;;;;;4954816;29;20082;-70
2022/04/14 06:07:17;;;;;;;53.83;32.00;;;;;;;;;;4953860;29;20055;-69
2022/04/14 06:09:43;;;;;;;46.05;30.13;;;;;;;;;;4954502;29;20046;-71
2022/04/14 06:12:09;;;;;;;45.05;28.90;;;;;;;;;;4953261;29;20102;-69
2022/04/14 06:14:35;;;;;;;46.75;29.10;;;;;;;;;;4953468;29;20093;-71
2022/04/14 06:17:01;;;;;;;48.33;29.10;;;;;;;;;;4954852;29;20474;-69
2022/04/14 06:19:27;;;;;;;48.85;29.23;;;;;;;;;;4952651;29;20038;-69
2022/04/14 06:21:53;;;;;;;47.70;29.23;;;;;;;;;;4954249;29;20054;-68
2022/04/14 06:24:19;;;;;;;49.00;30.05;;;;;;;;;;4953301;29;20051;-69
2022/04/14 06:26:45;;;;;;;48.95;29.92;;;;;;;;;;4940881;29;20079;-70
2022/04/14 06:29:12;;;;;;;48.20;28.65;;;;;;;;;;4953310;29;20039;-72
2022/04/14 06:31:38;;;;;;;46.13;29.40;;;;;;;;;;4947933;29;20122;-70
2022/04/14 06:34:05;;;;;;;52.20;29.70;;;;;;;;;;4946721;29;20039;-71
2022/04/14 06:36:31;;;;;;;51.28;30.15;;;;;;;;;;4946816;29;20398;-71
2022/04/14 06:38:57;;;;;;;45.33;28.92;;;;;;;;;;4954086;29;20055;-70
2022/04/14 06:41:25;;;;;;;52.53;29.77;;;;;;;;;;4952517;28;20046;-66
2022/04/14 06:43:51;;;;;;;47.78;31.75;;;;;;;;;;4953456;28;20051;-66
2022/04/14 06:46:17;;;;;;;52.60;29.83;;;;;;;;;;4953715;29;20058;-66
2022/04/14 06:48:43;;;;;;;48.63;29.13;;;;;;;;;;4953933;29;20046;-68
2022/04/14 06:51:10;;;;;;;52.20;30.77;;;;;;;;;;4951644;29;20071;-67
2022/04/14 06:53:37;;;;;;;50.60;30.35;;;;;;;;;;4953393;29;20062;-68
2022/04/14 06:56:04;;;;;;;51.53;29.23;;;;;;;;;;4943639;29;20178;-68
2022/04/14 06:58:30;;;;;;;57.67;31.42;;;;;;;;;;4948902;29;20039;-64
2022/04/14 07:00:56;;;;;;;47.90;28.88;;;;;;;;;;4953184;29;20067;-69
2022/04/14 07:03:26;;;;;;;43.95;28.92;;;;;;;;;;4920963;29;20055;-72
2022/04/14 07:05:54;;;;;;;52.08;28.88;;;;;;;;;;4944518;29;20051;-70
2022/04/14 07:08:21;;;;;;;50.83;29.92;;;;;;;;;;4951592;29;20055;-67
2022/04/14 07:10:47;;;;;;;47.40;28.50;;;;;;;;;;4952923;29;20047;-67
2022/04/14 07:13:14;;;;;;;49.15;28.25;;;;;;;;;;4953095;29;20040;-68
2022/04/14 07:15:40;;;;;;;44.78;28.17;;;;;;;;;;4954236;29;20035;-66
2022/04/14 07:18:06;;;;;;;49.33;27.45;;;;;;;;;;4952727;29;20508;-70
2022/04/14 07:20:32;;;;;;;45.33;27.05;;;;;;;;;;4952838;29;20051;-71
2022/04/14 07:22:59;;;;;;;42.53;25.25;;;;;;;;;;4944653;29;20537;-68
2022/04/14 07:25:28;;;;;;;45.15;26.67;;;;;;;;;;4950797;28;20051;-68
2022/04/14 07:27:54;;;;;;;43.08;26.45;;;;;;;;;;4964663;28;20055;-68
2022/04/14 07:30:21;;;;;;;40.40;24.88;;;;;;;;;;4942773;29;20058;-68
2022/04/14 07:32:47;;;;;;;40.28;25.45;;;;;;;;;;4948864;28;20493;-66
2022/04/14 07:35:14;;;;;;;40.58;24.95;;;;;;;;;;4952233;29;20082;-68
2022/04/14 07:37:40;;;;;;;40.38;24.98;;;;;;;;;;4951026;29;20043;-68
2022/04/14 07:40:07;;;;;;;40.30;24.90;;;;;;;;;;4948057;29;20070;-68
2022/04/14 07:42:34;;;;;;;40.20;23.88;;;;;;;;;;4940723;28;20046;-67
2022/04/14 07:45:00;;;;;;;39.47;24.50;;;;;;;;;;4952963;29;20047;-67
2022/04/14 07:47:26;;;;;;;37.45;25.02;;;;;;;;;;4952032;29;21816;-68
2022/04/14 07:49:52;;;;;;;36.22;23.23;;;;;;;;;;4950796;29;20506;-68
2022/04/14 07:52:18;;;;;;;40.25;24.40;;;;;;;;;;4951132;28;20106;-71
2022/04/14 07:54:44;;;;;;;37.92;23.70;;;;;;;;;;4951237;29;20570;-68
2022/04/14 07:57:11;;;;;;;38.63;22.95;;;;;;;;;;4950303;29;20071;-65
2022/04/14 07:59:37;;;;;;;42.40;23.45;;;;;;;;;;4949498;29;20078;-67
2022/04/14 08:02:03;;;;;;;32.45;20.63;;;;;;;;;;4927557;29;20056;-68
2022/04/14 08:04:30;;;;;;;34.53;21.55;;;;;;;;;;4945406;29;20363;-68
2022/04/14 08:06:56;;;;;;;34.78;21.85;;;;;;;;;;4926892;29;20054;-70
2022/04/14 08:09:23;;;;;;;31.83;21.65;;;;;;;;;;4940851;29;20048;-69
2022/04/14 08:11:49;;;;;;;31.63;20.42;;;;;;;;;;4935492;29;20106;-70
2022/04/14 08:14:17;;;;;;;30.42;19.50;;;;;;;;;;4938222;29;20487;-70
2022/04/14 08:16:43;;;;;;;25.23;16.15;;;;;;;;;;4944566;29;20044;-71
2022/04/14 08:19:09;;;;;;;26.73;16.85;;;;;;;;;;4946983;29;20043;-67
2022/04/14 08:21:35;;;;;;;24.05;16.10;;;;;;;;;;4934486;29;20070;-72
2022/04/14 08:24:02;;;;;;;22.80;14.90;;;;;;;;;;4951373;29;20054;-70
2022/04/14 08:26:28;;;;;;;19.63;13.68;;;;;;;;;;4950843;29;20039;-74
2022/04/14 08:28:55;;;;;;;24.05;16.00;;;;;;;;;;4926304;29;20447;-72
2022/04/14 08:31:22;;;;;;;26.88;16.52;;;;;;;;;;4940642;29;20048;-72
2022/04/14 08:33:51;;;;;;;25.25;16.20;;;;;;;;;;4940703;29;20054;-70
2022/04/14 08:36:17;;;;;;;24.40;16.77;;;;;;;;;;4941249;29;20118;-70
2022/04/14 08:38:45;;;;;;;24.83;15.93;;;;;;;;;;4941567;29;20039;-71
2022/04/14 08:41:13;;;;;;;21.75;15.77;;;;;;;;;;4935422;29;20051;-69
2022/04/14 08:43:40;;;;;;;22.27;15.73;;;;;;;;;;4963044;28;20051;-67
2022/04/14 08:46:07;;;;;;;20.88;14.68;;;;;;;;;;4952218;28;20051;-66
2022/04/14 08:48:35;;;;;;;23.05;15.63;;;;;;;;;;4943166;29;20382;-68
2022/04/14 08:51:02;;;;;;;23.33;14.75;;;;;;;;;;4950649;29;20086;-68
2022/04/14 08:53:28;;;;;;;22.67;15.10;;;;;;;;;;4952435;29;20050;-71
2022/04/14 08:55:56;;;;;;;26.50;16.27;;;;;;;;;;4949578;29;20043;-67
2022/04/14 08:58:26;;;;;;;22.77;15.10;;;;;;;;;;4940977;28;20043;-66
2022/04/14 09:00:53;;;;;;;23.50;15.48;;;;;;;;;;4945859;29;20510;-65
2022/04/14 09:03:19;;;;;;;20.27;14.90;;;;;;;;;;4949369;28;20059;-65
2022/04/14 09:05:45;;;;;;;21.48;15.07;;;;;;;;;;4951427;29;20113;-66
2022/04/14 09:08:11;;;;;;;21.40;14.40;;;;;;;;;;4950409;29;20130;-67
2022/04/14 09:10:38;;;;;;;20.08;14.55;;;;;;;;;;4935192;29;20043;-67
2022/04/14 09:13:04;;;;;;;22.30;15.50;;;;;;;;;;4955225;29;20095;-71
2022/04/14 09:15:30;;;;;;;24.15;14.82;;;;;;;;;;4946220;29;20486;-69
2022/04/14 09:17:56;;;;;;;23.33;15.50;;;;;;;;;;4943499;29;20390;-69
2022/04/14 09:20:34;;;;;;;22.00;14.43;;;;;;;;;;4946618;29;20058;-70
2022/04/14 09:23:15;;;;;;;22.92;14.95;;;;;;;;;;4934831;29;20138;-67
2022/04/14 09:25:42;;;;;;;21.07;13.57;;;;;;;;;;4944096;29;20044;-66
2022/04/14 09:28:09;;;;;;;22.15;13.48;;;;;;;;;;4946450;29;20922;-66
2022/04/14 09:30:35;;;;;;;20.30;13.48;;;;;;;;;;4948234;29;20505;-67
2022/04/14 09:33:02;;;;;;;19.85;13.82;;;;;;;;;;4950618;29;20147;-70
2022/04/14 09:35:31;;;;;;;18.02;13.38;;;;;;;;;;4951838;29;20066;-70
2022/04/14 09:38:13;;;;;;;19.60;13.50;;;;;;;;;;4938825;29;20048;-72
2022/04/14 09:40:40;;;;;;;19.50;13.82;;;;;;;;;;4936989;29;20051;-70
2022/04/14 09:43:06;;;;;;;19.83;14.32;;;;;;;;;;4941934;29;20058;-70
2022/04/14 09:45:35;;;;;;;21.05;15.32;;;;;;;;;;4953033;29;20058;-70
2022/04/14 09:48:12;;;;;;;20.60;14.70;;;;;;;;;;4951566;29;20047;-68
2022/04/14 09:50:40;;;;;;;20.92;15.40;;;;;;;;;;4941127;29;20054;-69
2022/04/14 09:53:14;;;;;;;20.17;14.32;;;;;;;;;;4932537;29;20540;-71
2022/04/14 09:55:41;;;;;;;19.77;13.48;;;;;;;;;;4959394;28;20044;-70
2022/04/14 09:58:15;;;;;;;19.33;13.80;;;;;;;;;;4950517;29;20051;-68
2022/04/14 10:00:41;;;;;;;18.77;13.23;;;;;;;;;;4941004;29;20063;-68
2022/04/14 10:03:13;;;;;;;18.77;12.90;;;;;;;;;;4946053;29;20051;-68
2022/04/14 10:05:39;;;;;;;;;;;;;;;;;;4953552;29;20591;-69
2022/04/14 10:08:09;;;;;;;15.52;11.10;;;;;;;;;;4952054;29;19965;-66
2022/04/14 10:10:36;;;;;;;20.92;13.18;;;;;;;;;;4953148;29;20050;-65
2022/04/14 10:13:07;;;;;;;15.80;12.85;;;;;;;;;;4952284;29;20045;-66
2022/04/14 10:15:35;;;;;;;20.33;12.77;;;;;;;;;;4952362;28;20502;-69
2022/04/14 10:18:04;;;;;;;14.73;10.18;;;;;;;;;;4951148;29;20058;-67
2022/04/14 10:20:30;;;;;;;10.68;7.68;;;;;;;;;;4952116;29;20126;-68
2022/04/14 10:22:58;;;;;;;10.65;7.57;;;;;;;;;;4950689;29;20158;-69
2022/04/14 10:25:24;;;;;;;13.13;7.65;;;;;;;;;;4950783;29;20146;-70
2022/04/14 10:27:51;;;;;;;16.05;8.35;;;;;;;;;;4930235;29;20055;-69
2022/04/14 10:30:20;;;;;;;10.38;8.13;;;;;;;;;;4948702;29;20051;-67
2022/04/14 10:32:46;;;;;;;8.60;5.97;;;;;;;;;;4953175;28;20058;-69
2022/04/14 10:35:13;;;;;;;7.25;5.80;;;;;;;;;;4951091;29;20044;-69
2022/04/14 10:37:43;;;;;;;9.68;6.45;;;;;;;;;;4951559;29;20043;-70
2022/04/14 10:40:11;;;;;;;9.90;6.45;;;;;;;;;;4951565;29;20062;-70
2022/04/14 10:42:37;;;;;;;12.02;6.85;;;;;;;;;;4943981;28;20055;-68
2022/04/14 10:45:22;;;;;;;11.00;6.20;;;;;;;;;;4952826;29;20043;-68
2022/04/14 10:47:51;;;;;;;9.60;6.22;;;;;;;;;;4949219;28;20050;-68
2022/04/14 10:50:21;;;;;;;13.73;7.30;;;;;;;;;;4953359;29;20055;-68
2022/04/14 10:53:06;;;;;;;10.30;6.80;;;;;;;;;;4951696;29;20422;-67
2022/04/14 10:55:45;;;;;;;10.10;6.75;;;;;;;;;;4951610;29;20043;-71
2022/04/14 10:58:26;;;;;;;9.15;6.47;;;;;;;;;;4951077;29;20074;-71
2022/04/14 11:00:54;;;;;;;10.07;6.47;;;;;;;;;;4950607;29;20121;-71
2022/04/14 11:03:20;;;;;;;9.80;5.75;;;;;;;;;;4946865;29;20059;-68
2022/04/14 11:05:48;;;;;;;7.57;4.72;;;;;;;;;;4951436;29;20054;-70
2022/04/14 11:08:22;;;;;;;7.03;3.67;;;;;;;;;;4951253;29;20055;-72
2022/04/14 11:11:07;;;;;;;5.50;3.30;;;;;;;;;;4933835;29;20118;-72
2022/04/14 11:13:52;;;;;;;6.22;3.40;;;;;;;;;;4924974;29;20103;-74
2022/04/14 11:16:37;;;;;;;5.40;3.00;;;;;;;;;;4949884;29;20051;-72
2022/04/14 11:19:18;;;;;;;5.03;3.10;;;;;;;;;;4936549;29;20039;-71
2022/04/14 11:22:14;;;;;;;6.70;3.28;;;;;;;;;;4946786;29;20082;-72
2022/04/14 11:24:41;;;;;;;5.93;3.72;;;;;;;;;;4937699;28;20055;-73
2022/04/14 11:27:17;;;;;;;5.63;3.80;;;;;;;;;;4947466;29;20039;-76
2022/04/14 11:29:44;;;;;;;7.43;4.38;;;;;;;;;;4951498;29;20047;-74
2022/04/14 11:32:11;;;;;;;6.35;3.58;;;;;;;;;;4935137;29;20039;-73
2022/04/14 11:34:39;;;;;;;7.88;4.20;;;;;;;;;;4935996;29;20642;-68
2022/04/14 11:37:25;;;;;;;6.80;3.85;;;;;;;;;;4951861;28;20806;-68
2022/04/14 11:40:30;;;;;;;6.88;3.60;;;;;;;;;;4950720;29;20134;-69
2022/04/14 11:42:58;;;;;;;6.90;3.55;;;;;;;;;;4895098;29;20152;-70
2022/04/14 11:45:28;;;;;;;7.20;3.70;;;;;;;;;;4895068;29;20048;-69
2022/04/14 11:48:03;;;;;;;5.40;3.97;;;;;;;;;;4931754;28;20569;-73
2022/04/14 11:50:33;;;;;;;5.65;3.35;;;;;;;;;;4950658;29;20162;-73
2022/04/14 11:53:00;;;;;;;7.35;3.13;;;;;;;;;;4949600;29;20102;-69
2022/04/14 11:55:36;;;;;;;4.47;2.20;;;;;;;;;;4952328;29;20399;-68
2022/04/14 11:58:10;;;;;;;4.43;2.10;;;;;;;;;;4951008;29;20035;-73
2022/04/14 12:00:46;;;;;;;3.50;2.50;;;;;;;;;;4939702;29;20074;-69
2022/04/14 12:03:12;;;;;;;5.78;2.78;;;;;;;;;;4941360;28;20066;-71
2022/04/14 12:05:40;;;;;;;5.65;2.35;;;;;;;;;;4947809;28;20138;-70
2022/04/14 12:08:07;;;;;;;5.75;2.55;;;;;;;;;;4951393;28;20055;-71
2022/04/14 12:10:33;;;;;;;7.75;2.17;;;;;;;;;;4931020;29;20047;-71
2022/04/14 12:13:06;;;;;;;5.63;2.30;;;;;;;;;;4935505;29;20043;-72
2022/04/14 12:15:32;;;;;;;6.97;2.92;;;;;;;;;;4931074;29;20051;-72
2022/04/14 12:18:06;;;;;;;7.30;3.53;;;;;;;;;;4949965;29;20135;-72
2022/04/14 12:20:45;;;;;;;5.63;2.78;;;;;;;;;;4949500;29;20043;-71
2022/04/14 12:23:11;;;;;;;7.47;2.97;;;;;;;;;;4931740;29;20046;-71
2022/04/14 12:25:39;;;;;;;4.90;2.22;;;;;;;;;;4942220;29;20727;-70
2022/04/14 12:28:05;;;;;;;7.35;3.00;;;;;;;;;;4958650;28;20127;-71
2022/04/14 12:30:31;;;;;;;6.22;3.10;;;;;;;;;;4947206;29;20134;-72
2022/04/14 12:33:02;;;;;;;5.20;2.30;;;;;;;;;;4949663;29;20053;-69
2022/04/14 12:35:36;;;;;;;7.07;2.78;;;;;;;;;;4941760;29;20047;-68
2022/04/14 12:38:24;;;;;;;6.57;2.72;;;;;;;;;;4935019;29;20080;-69
2022/04/14 12:41:04;;;;;;;6.35;2.85;;;;;;;;;;4950316;29;20059;-69
2022/04/14 12:43:41;;;;;;;7.13;2.10;;;;;;;;;;4948935;29;20047;-69
2022/04/14 12:46:24;;;;;;;3.10;1.60;;;;;;;;;;4948424;29;20059;-69
2022/04/14 12:49:06;;;;;;;4.07;1.55;;;;;;;;;;4918531;29;20052;-69
2022/04/14 12:51:42;;;;;;;4.32;1.83;;;;;;;;;;4951990;29;20039;-68
2022/04/14 12:54:09;;;;;;;6.50;2.17;;;;;;;;;;4948102;29;20051;-70
2022/04/14 12:56:36;;;;;;;5.40;2.67;;;;;;;;;;4945633;29;20083;-69
2022/04/14 12:59:13;;;;;;;6.05;2.78;;;;;;;;;;4950219;29;20058;-69
2022/04/14 13:01:46;;;;;;;4.72;2.15;;;;;;;;;;4946865;28;20059;-69
2022/04/14 13:04:12;;;;;;;4.32;2.13;;;;;;;;;;4955319;29;20043;-71
2022/04/14 13:06:39;;;;;;;7.65;2.03;;;;;;;;;;4945371;29;20059;-70
2022/04/14 13:09:17;;;;;;;6.80;2.05;;;;;;;;;;4950948;29;20505;-69
2022/04/14 13:11:48;;;;;;;4.03;1.83;;;;;;;;;;4944281;29;20054;-68
2022/04/14 13:14:22;;;;;;;3.80;1.80;;;;;;;;;;4947212;29;20047;-69
2022/04/14 13:16:48;;;;;;;6.28;1.70;;;;;;;;;;4939032;29;20047;-69
2022/04/14 13:19:15;;;;;;;6.05;1.67;;;;;;;;;;4944929;29;20391;-67
2022/04/14 13:21:41;;;;;;;3.88;1.60;;;;;;;;;;4952438;28;20054;-67
2022/04/14 13:24:07;;;;;;;3.97;1.70;;;;;;;;;;4947243;29;20553;-68
2022/04/14 13:26:34;;;;;;;7.75;2.20;;;;;;;;;;4947726;29;20042;-67
2022/04/14 13:29:01;;;;;;;5.18;2.17;;;;;;;;;;4953803;29;20039;-68
2022/04/14 13:31:27;;;;;;;4.35;1.63;;;;;;;;;;4953175;28;20097;-67
2022/04/14 13:33:53;;;;;;;5.75;1.70;;;;;;;;;;4953759;29;20046;-71
2022/04/14 13:36:19;;;;;;;6.47;1.70;;;;;;;;;;4952204;29;20393;-71
2022/04/14 13:38:45;;;;;;;5.28;1.55;;;;;;;;;;4953524;29;20051;-70
2022/04/14 13:41:12;;;;;;;4.40;1.17;;;;;;;;;;4935751;29;20051;-68
2022/04/14 13:43:38;;;;;;;6.28;1.20;;;;;;;;;;4953743;28;20055;-69
2022/04/14 13:46:05;;;;;;;2.53;1.05;;;;;;;;;;4953634;28;20070;-71
2022/04/14 13:48:31;;;;;;;2.85;0.93;;;;;;;;;;4953073;29;20043;-72
2022/04/14 13:50:57;;;;;;;4.07;1.05;;;;;;;;;;4950619;28;20137;-70
2022/04/14 13:53:23;;;;;;;3.47;1.10;;;;;;;;;;4954506;29;20041;-70
2022/04/14 13:55:50;;;;;;;4.82;0.98;;;;;;;;;;4952441;29;20047;-71
2022/04/14 13:58:16;;;;;;;3.53;0.90;;;;;;;;;;4952756;28;20051;-71
2022/04/14 14:00:42;;;;;;;3.03;0.90;;;;;;;;;;4937966;29;20386;-72
2022/04/14 14:03:08;;;;;;;4.95;0.90;;;;;;;;;;4951921;29;20051;-73
2022/04/14 14:05:35;;;;;;;3.35;0.90;;;;;;;;;;4946418;29;20051;-71
2022/04/14 14:08:01;;;;;;;4.03;0.90;;;;;;;;;;4935914;29;20453;-72
2022/04/14 14:10:27;;;;;;;2.97;1.02;;;;;;;;;;4951616;29;20031;-74
2022/04/14 14:12:54;;;;;;;2.85;1.13;;;;;;;;;;4953922;29;20394;-71
2022/04/14 14:15:20;;;;;;;2.53;1.20;;;;;;;;;;4936955;29;20039;-70
2022/04/14 14:17:46;;;;;;;2.90;0.80;;;;;;;;;;4952126;29;20126;-71
2022/04/14 14:20:13;;;;;;;3.08;1.00;;;;;;;;;;4960829;29;20057;-73
2022/04/14 14:22:41;;;;;;;2.55;1.00;;;;;;;;;;4951689;29;20442;-73
2022/04/14 14:25:08;;;;;;;6.45;1.55;;;;;;;;;;4936585;29;20595;-71
2022/04/14 14:27:34;;;;;;;3.00;1.10;;;;;;;;;;4949971;29;20102;-70
2022/04/14 14:30:04;;;;;;;3.00;1.10;;;;;;;;;;4953488;29;20047;-70